Time,TemperatureF,DewpointF,PressureIn,WindDirection,WindDirectionDegrees,WindSpeedMPH,WindSpeedGustMPH,Humidity,HourlyPrecipIn,Conditions,Clouds,dailyrainin,SoftwareType,DateUTC
2013-02-12 00:00:00,1.9,-2.0,31.00,West,266,0.0,0.0,83,0.00,,,0.00,Weather View 32 v70,2013-02-12 07:00:00,
2013-02-12 00:05:00,1.9,-2.0,31.00,West,266,0.0,0.0,83,0.00,,,0.00,Weather View 32 v70,2013-02-12 07:05:00,
2013-02-12 00:10:00,2.1,-1.8,31.00,WSW,242,0.0,0.0,83,0.00,,,0.00,Weather View 32 v70,2013-02-12 07:10:00,
2013-02-12 00:15:00,2.3,-1.7,31.00,West,261,0.0,0.0,83,0.00,,,0.00,Weather View 32 v70,2013-02-12 07:15:00,
2013-02-12 00:20:00,2.3,-1.7,31.00,SW,222,0.0,0.0,83,0.00,,,0.00,Weather View 32 v70,2013-02-12 07:20:00,
2013-02-12 00:25:00,2.5,-1.5,31.00,WSW,255,0.0,0.0,83,0.00,,,0.00,Weather View 32 v70,2013-02-12 07:25:00,
2013-02-12 00:30:00,2.5,-1.5,31.00,SSE,165,0.0,0.0,83,0.00,,,0.00,Weather View 32 v70,2013-02-12 07:30:00,
2013-02-12 00:35:00,2.8,-1.1,31.00,NNW,328,0.0,0.0,83,0.00,,,0.00,Weather View 32 v70,2013-02-12 07:35:00,
2013-02-12 00:40:00,3.2,-0.8,31.00,ESE,116,0.0,0.0,83,0.00,,,0.00,Weather View 32 v70,2013-02-12 07:40:00,
2013-02-12 00:45:00,4.1,0.1,31.00,SW,235,0.0,0.0,83,0.00,,,0.00,Weather View 32 v70,2013-02-12 07:45:00,
2013-02-12 00:50:00,5.4,1.3,31.00,West,271,0.0,0.0,83,0.00,,,0.00,Weather View 32 v70,2013-02-12 07:50:00,
2013-02-12 00:55:00,5.5,1.5,31.00,WSW,254,0.0,4.0,83,0.00,,,0.00,Weather View 32 v70,2013-02-12 07:55:00,
2013-02-12 01:00:00,5.7,1.7,31.00,WSW,248,0.0,4.0,83,0.00,,,0.00,Weather View 32 v70,2013-02-12 08:00:00,
2013-02-12 01:05:00,5.5,1.5,31.00,WSW,245,0.0,4.0,83,0.00,,,0.00,Weather View 32 v70,2013-02-12 08:05:00,
2013-02-12 01:10:00,5.2,1.2,31.00,NW,315,0.0,4.0,83,0.00,,,0.00,Weather View 32 v70,2013-02-12 08:10:00,
2013-02-12 01:15:00,5.4,1.3,31.00,SW,226,0.0,4.0,83,0.00,,,0.00,Weather View 32 v70,2013-02-12 08:15:00,
2013-02-12 01:20:00,5.7,1.7,31.00,WNW,290,0.0,4.0,83,0.00,,,0.00,Weather View 32 v70,2013-02-12 08:20:00,
2013-02-12 01:25:00,5.4,1.3,31.00,WSW,253,0.0,4.0,83,0.00,,,0.00,Weather View 32 v70,2013-02-12 08:25:00,
2013-02-12 01:30:00,5.0,1.0,31.00,WSW,250,0.0,4.0,83,0.00,,,0.00,Weather View 32 v70,2013-02-12 08:30:00,
2013-02-12 01:35:00,5.7,1.7,31.00,SSW,212,0.0,4.0,83,0.00,,,0.00,Weather View 32 v70,2013-02-12 08:35:00,
2013-02-12 01:40:00,5.9,1.9,31.00,SE,146,4.0,4.0,83,0.00,,,0.00,Weather View 32 v70,2013-02-12 08:40:00,
2013-02-12 01:45:00,6.3,2.2,31.00,SSE,166,0.0,6.0,83,0.00,,,0.00,Weather View 32 v70,2013-02-12 08:45:00,
2013-02-12 01:50:00,6.3,2.2,31.00,NNW,334,0.0,6.0,83,0.00,,,0.00,Weather View 32 v70,2013-02-12 08:50:00,
2013-02-12 01:55:00,5.9,1.9,31.00,SE,142,0.0,6.0,83,0.00,,,0.00,Weather View 32 v70,2013-02-12 08:55:00,
2013-02-12 02:00:00,5.5,1.5,31.00,SSW,199,0.0,6.0,83,0.00,,,0.00,Weather View 32 v70,2013-02-12 09:00:00,
2013-02-12 02:05:00,5.7,1.7,31.00,SW,225,0.0,6.0,83,0.00,,,0.00,Weather View 32 v70,2013-02-12 09:05:00,
2013-02-12 02:10:00,5.5,1.5,31.00,SW,233,0.0,6.0,83,0.00,,,0.00,Weather View 32 v70,2013-02-12 09:10:00,
2013-02-12 02:15:00,6.1,2.0,31.00,SSE,151,0.0,6.0,83,0.00,,,0.00,Weather View 32 v70,2013-02-12 09:15:00,
2013-02-12 02:20:00,5.9,1.9,31.00,SSW,213,0.0,6.0,83,0.00,,,0.00,Weather View 32 v70,2013-02-12 09:20:00,
2013-02-12 02:25:00,5.9,1.9,31.00,SW,236,0.0,6.0,83,0.00,,,0.00,Weather View 32 v70,2013-02-12 09:25:00,
2013-02-12 02:30:00,5.4,1.3,31.00,SW,224,0.0,6.0,83,0.00,,,0.00,Weather View 32 v70,2013-02-12 09:30:00,
2013-02-12 02:35:00,5.0,1.0,31.00,SW,231,0.0,6.0,83,0.00,,,0.00,Weather View 32 v70,2013-02-12 09:35:00,
2013-02-12 02:40:00,4.8,0.8,31.00,WSW,255,0.0,6.0,83,0.00,,,0.00,Weather View 32 v70,2013-02-12 09:40:00,
2013-02-12 02:45:00,4.5,0.4,31.00,WSW,258,0.0,6.0,83,0.00,,,0.00,Weather View 32 v70,2013-02-12 09:45:00,
2013-02-12 02:50:00,5.0,1.0,31.00,WNW,295,0.0,6.0,83,0.00,,,0.00,Weather View 32 v70,2013-02-12 09:50:00,
2013-02-12 02:55:00,5.0,1.0,31.00,WSW,254,0.0,6.0,83,0.00,,,0.00,Weather View 32 v70,2013-02-12 09:55:00,
2013-02-12 03:00:00,4.5,0.4,31.00,SSW,209,0.0,0.0,83,0.00,,,0.00,Weather View 32 v70,2013-02-12 10:00:00,
2013-02-12 03:05:00,4.8,0.8,31.00,West,265,0.0,0.0,83,0.00,,,0.00,Weather View 32 v70,2013-02-12 10:05:00,
2013-02-12 03:10:00,4.6,0.6,31.00,West,265,0.0,0.0,83,0.00,,,0.00,Weather View 32 v70,2013-02-12 10:10:00,
2013-02-12 03:15:00,4.8,0.8,31.00,SW,219,0.0,0.0,83,0.00,,,0.00,Weather View 32 v70,2013-02-12 10:15:00,
2013-02-12 03:20:00,4.6,0.6,31.00,WSW,258,0.0,0.0,83,0.00,,,0.00,Weather View 32 v70,2013-02-12 10:20:00,
2013-02-12 03:25:00,4.1,0.1,31.00,WSW,254,0.0,0.0,83,0.00,,,0.00,Weather View 32 v70,2013-02-12 10:25:00,
2013-02-12 03:30:00,3.9,-0.1,31.00,SW,227,0.0,0.0,83,0.00,,,0.00,Weather View 32 v70,2013-02-12 10:30:00,
2013-02-12 03:35:00,3.7,-0.3,31.00,North,357,0.0,0.0,83,0.00,,,0.00,Weather View 32 v70,2013-02-12 10:35:00,
2013-02-12 03:40:00,4.1,0.1,31.00,SSE,153,0.0,0.0,83,0.00,,,0.00,Weather View 32 v70,2013-02-12 10:40:00,
2013-02-12 03:45:00,4.5,0.4,31.00,SW,234,0.0,0.0,83,0.00,,,0.00,Weather View 32 v70,2013-02-12 10:45:00,
2013-02-12 03:50:00,4.3,0.3,31.00,WNW,296,0.0,0.0,83,0.00,,,0.00,Weather View 32 v70,2013-02-12 10:50:00,
2013-02-12 03:55:00,4.1,0.1,31.00,NW,319,0.0,0.0,83,0.00,,,0.00,Weather View 32 v70,2013-02-12 10:55:00,
2013-02-12 04:00:00,4.1,0.1,31.00,SSE,157,0.0,0.0,83,0.00,,,0.00,Weather View 32 v70,2013-02-12 11:00:00,
2013-02-12 04:05:00,5.2,1.2,31.00,SW,228,0.0,0.0,83,0.00,,,0.00,Weather View 32 v70,2013-02-12 11:05:00,
2013-02-12 04:10:00,5.5,1.5,31.00,West,260,0.0,0.0,83,0.00,,,0.00,Weather View 32 v70,2013-02-12 11:10:00,
2013-02-12 04:15:00,5.5,1.5,31.00,SW,228,0.0,0.0,83,0.00,,,0.00,Weather View 32 v70,2013-02-12 11:15:00,
2013-02-12 04:20:00,5.7,1.7,31.00,SSE,153,0.0,0.0,83,0.00,,,0.00,Weather View 32 v70,2013-02-12 11:20:00,
2013-02-12 04:25:00,6.3,2.2,31.00,South,178,0.0,0.0,83,0.00,,,0.00,Weather View 32 v70,2013-02-12 11:25:00,
2013-02-12 04:30:00,6.8,2.7,31.00,SW,229,0.0,6.0,83,0.00,,,0.00,Weather View 32 v70,2013-02-12 11:30:00,
2013-02-12 04:35:00,7.5,3.4,31.00,NE,51,0.0,6.0,83,0.00,,,0.00,Weather View 32 v70,2013-02-12 11:35:00,
2013-02-12 04:40:00,7.3,3.3,31.00,ENE,75,0.0,6.0,83,0.00,,,0.00,Weather View 32 v70,2013-02-12 11:40:00,
2013-02-12 04:45:00,7.9,3.8,31.00,ESE,102,0.0,6.0,83,0.00,,,0.00,Weather View 32 v70,2013-02-12 11:45:00,
2013-02-12 04:50:00,7.9,3.8,31.00,SE,141,8.0,8.0,83,0.00,,,0.00,Weather View 32 v70,2013-02-12 11:50:00,
2013-02-12 04:55:00,7.7,3.6,31.00,East,98,0.0,8.0,83,0.00,,,0.00,Weather View 32 v70,2013-02-12 11:55:00,
2013-02-12 05:00:00,8.4,4.3,31.00,SSE,150,0.0,8.0,83,0.00,,,0.00,Weather View 32 v70,2013-02-12 12:00:00,
2013-02-12 05:05:00,8.6,4.5,31.00,SE,134,0.0,8.0,83,0.00,,,0.00,Weather View 32 v70,2013-02-12 12:05:00,
2013-02-12 05:10:00,8.8,4.7,31.00,SE,136,0.0,8.0,83,0.00,,,0.00,Weather View 32 v70,2013-02-12 12:10:00,
2013-02-12 05:15:00,8.4,4.3,31.00,SSW,194,0.0,8.0,83,0.00,,,0.00,Weather View 32 v70,2013-02-12 12:15:00,
2013-02-12 05:20:00,8.1,4.0,31.00,WSW,247,0.0,8.0,83,0.00,,,0.00,Weather View 32 v70,2013-02-12 12:20:00,
2013-02-12 05:25:00,7.7,3.6,31.00,South,177,0.0,8.0,83,0.00,,,0.00,Weather View 32 v70,2013-02-12 12:25:00,
2013-02-12 05:30:00,7.3,3.3,31.00,West,269,0.0,8.0,83,0.00,,,0.00,Weather View 32 v70,2013-02-12 12:30:00,
2013-02-12 05:35:00,7.3,3.3,31.00,NNE,31,3.0,8.0,83,0.00,,,0.00,Weather View 32 v70,2013-02-12 12:35:00,
2013-02-12 05:40:00,7.7,3.6,31.00,WSW,258,0.0,8.0,83,0.00,,,0.00,Weather View 32 v70,2013-02-12 12:40:00,
2013-02-12 05:45:00,6.8,2.7,31.00,West,264,0.0,8.0,83,0.00,,,0.00,Weather View 32 v70,2013-02-12 12:45:00,
2013-02-12 05:50:00,5.9,1.9,31.00,WNW,292,0.0,8.0,83,0.00,,,0.00,Weather View 32 v70,2013-02-12 12:50:00,
2013-02-12 05:55:00,5.4,1.3,31.00,WSW,250,0.0,8.0,83,0.00,,,0.00,Weather View 32 v70,2013-02-12 12:55:00,
2013-02-12 06:00:00,4.5,0.4,31.00,SW,216,0.0,8.0,83,0.00,,,0.00,Weather View 32 v70,2013-02-12 13:00:00,
2013-02-12 06:05:00,3.9,-0.1,31.00,SW,219,0.0,8.0,83,0.00,,,0.00,Weather View 32 v70,2013-02-12 13:05:00,
2013-02-12 06:10:00,3.6,-0.4,31.00,SW,226,0.0,8.0,83,0.00,,,0.00,Weather View 32 v70,2013-02-12 13:10:00,
2013-02-12 06:15:00,3.7,-0.3,31.00,SW,226,0.0,8.0,83,0.00,,,0.00,Weather View 32 v70,2013-02-12 13:15:00,
2013-02-12 06:20:00,3.7,-0.3,31.00,NW,305,0.0,8.0,83,0.00,,,0.00,Weather View 32 v70,2013-02-12 13:20:00,
2013-02-12 06:25:00,3.4,-0.6,31.00,WNW,294,0.0,8.0,83,0.00,,,0.00,Weather View 32 v70,2013-02-12 13:25:00,
2013-02-12 06:30:00,3.4,-0.6,31.00,South,170,0.0,3.0,83,0.00,,,0.00,Weather View 32 v70,2013-02-12 13:30:00,
2013-02-12 06:35:00,3.2,-0.8,31.00,WSW,245,0.0,3.0,83,0.00,,,0.00,Weather View 32 v70,2013-02-12 13:35:00,
2013-02-12 06:40:00,3.0,-1.0,31.00,WSW,247,0.0,0.0,83,0.00,,,0.00,Weather View 32 v70,2013-02-12 13:40:00,
2013-02-12 06:45:00,2.5,-1.5,31.00,WSW,247,0.0,0.0,83,0.00,,,0.00,Weather View 32 v70,2013-02-12 13:45:00,
2013-02-12 06:50:00,2.1,-1.8,31.00,WSW,247,0.0,0.0,83,0.00,,,0.00,Weather View 32 v70,2013-02-12 13:50:00,
2013-02-12 06:55:00,1.9,-2.0,31.00,WSW,247,0.0,0.0,83,0.00,,,0.00,Weather View 32 v70,2013-02-12 13:55:00,
2013-02-12 07:00:00,1.9,-2.0,31.00,WSW,247,0.0,0.0,83,0.00,,,0.00,Weather View 32 v70,2013-02-12 14:00:00,
2013-02-12 07:05:00,1.8,-2.2,31.00,WSW,251,0.0,0.0,83,0.00,,,0.00,Weather View 32 v70,2013-02-12 14:05:00,
2013-02-12 07:10:00,1.6,-2.4,31.00,WSW,251,0.0,0.0,83,0.00,,,0.00,Weather View 32 v70,2013-02-12 14:10:00,
2013-02-12 07:15:00,1.8,-2.2,31.00,SSW,192,0.0,0.0,83,0.00,,,0.00,Weather View 32 v70,2013-02-12 14:15:00,
2013-02-12 07:20:00,1.8,-2.2,31.00,SSE,152,3.0,3.0,83,0.00,,,0.00,Weather View 32 v70,2013-02-12 14:20:00,
2013-02-12 07:25:00,2.5,-1.5,31.00,South,176,0.0,3.0,83,0.00,,,0.00,Weather View 32 v70,2013-02-12 14:25:00,
2013-02-12 07:30:00,3.2,-0.8,31.00,WSW,245,0.0,4.0,83,0.00,,,0.00,Weather View 32 v70,2013-02-12 14:30:00,
2013-02-12 07:35:00,3.4,-0.6,31.00,WSW,246,0.0,4.0,83,0.00,,,0.00,Weather View 32 v70,2013-02-12 14:35:00,
2013-02-12 07:40:00,3.6,-0.4,31.00,WSW,246,0.0,4.0,83,0.00,,,0.00,Weather View 32 v70,2013-02-12 14:40:00,
2013-02-12 07:45:00,3.2,-0.8,31.00,WSW,246,0.0,4.0,83,0.00,,,0.00,Weather View 32 v70,2013-02-12 14:45:00,
2013-02-12 07:50:00,3.2,-0.8,31.00,WSW,252,0.0,4.0,83,0.00,,,0.00,Weather View 32 v70,2013-02-12 14:50:00,
2013-02-12 07:55:00,3.4,-0.6,31.00,WSW,251,0.0,4.0,83,0.00,,,0.00,Weather View 32 v70,2013-02-12 14:55:00,
2013-02-12 07:59:00,3.2,-0.8,31.00,WSW,251,0.0,4.0,83,0.00,,,0.00,Weather View 32 v70,2013-02-12 14:59:00,
2013-02-12 08:04:00,3.2,-0.8,31.00,WSW,256,0.0,4.0,83,0.00,,,0.00,Weather View 32 v70,2013-02-12 15:04:00,
2013-02-12 08:09:00,3.6,-0.4,31.00,SSE,160,0.0,4.0,83,0.00,,,0.00,Weather View 32 v70,2013-02-12 15:09:00,
2013-02-12 08:14:00,5.0,1.0,31.00,WSW,246,0.0,4.0,83,0.00,,,0.00,Weather View 32 v70,2013-02-12 15:14:00,
2013-02-12 08:19:00,5.2,1.2,31.00,West,281,0.0,4.0,83,0.00,,,0.00,Weather View 32 v70,2013-02-12 15:19:00,
2013-02-12 08:24:00,5.5,1.5,31.00,WSW,254,0.0,4.0,83,0.00,,,0.00,Weather View 32 v70,2013-02-12 15:24:00,
2013-02-12 08:29:00,5.9,1.9,31.00,WSW,251,0.0,4.0,83,0.00,,,0.00,Weather View 32 v70,2013-02-12 15:29:00,
2013-02-12 08:34:00,6.4,2.4,31.00,WSW,251,0.0,4.0,83,0.00,,,0.00,Weather View 32 v70,2013-02-12 15:34:00,
2013-02-12 08:39:00,7.3,3.3,31.00,WSW,240,0.0,4.0,83,0.00,,,0.00,Weather View 32 v70,2013-02-12 15:39:00,
2013-02-12 08:44:00,7.5,3.4,31.00,WSW,240,0.0,4.0,83,0.00,,,0.00,Weather View 32 v70,2013-02-12 15:44:00,
2013-02-12 08:49:00,7.9,3.8,31.00,WSW,238,0.0,4.0,83,0.00,,,0.00,Weather View 32 v70,2013-02-12 15:49:00,
2013-02-12 08:54:00,8.4,4.3,31.00,WSW,239,0.0,4.0,83,0.00,,,0.00,Weather View 32 v70,2013-02-12 15:54:00,
2013-02-12 08:59:00,9.3,5.2,31.00,North,357,0.0,4.0,83,0.00,,,0.00,Weather View 32 v70,2013-02-12 15:59:00,
2013-02-12 09:04:00,11.1,7.0,31.00,SW,235,0.0,4.0,83,0.00,,,0.00,Weather View 32 v70,2013-02-12 16:04:00,
2013-02-12 09:09:00,11.8,7.7,31.00,SW,220,0.0,4.0,83,0.00,,,0.00,Weather View 32 v70,2013-02-12 16:09:00,
2013-02-12 09:14:00,13.5,9.3,31.00,ESE,111,0.0,5.0,83,0.00,,,0.00,Weather View 32 v70,2013-02-12 16:14:00,
2013-02-12 09:19:00,14.5,-2.0,31.00,SW,233,0.0,5.0,47,0.00,,,0.00,Weather View 32 v70,2013-02-12 16:19:00,
2013-02-12 09:24:00,16.9,-2.8,31.00,SSW,202,5.0,6.0,41,0.00,,,0.00,Weather View 32 v70,2013-02-12 16:24:00,
2013-02-12 09:29:00,21.2,-4.1,31.00,SSE,155,4.0,8.0,32,0.00,,,0.00,Weather View 32 v70,2013-02-12 16:29:00,
2013-02-12 09:34:00,22.8,-2.6,31.00,South,187,5.0,8.0,32,0.00,,,0.00,Weather View 32 v70,2013-02-12 16:34:00,
2013-02-12 09:39:00,23.5,-5.5,31.00,SE,124,3.0,8.0,27,0.00,,,0.00,Weather View 32 v70,2013-02-12 16:39:00,
2013-02-12 09:44:00,24.4,-4.8,31.00,SSE,153,4.0,8.0,27,0.00,,,0.00,Weather View 32 v70,2013-02-12 16:44:00,
2013-02-12 09:49:00,24.8,-6.9,31.00,South,186,0.0,8.0,24,0.00,,,0.00,Weather View 32 v70,2013-02-12 16:49:00,
2013-02-12 09:54:00,25.7,-6.1,31.00,SSW,197,0.0,8.0,24,0.00,,,0.00,Weather View 32 v70,2013-02-12 16:54:00,
2013-02-12 09:59:00,26.4,-5.5,31.00,SSE,165,4.0,8.0,24,0.00,,,0.00,Weather View 32 v70,2013-02-12 16:59:00,
2013-02-12 10:04:00,26.1,-5.8,31.00,ESE,121,0.0,8.0,24,0.00,,,0.00,Weather View 32 v70,2013-02-12 17:04:00,
2013-02-12 10:09:00,25.9,-6.0,31.00,ENE,70,0.0,8.0,24,0.00,,,0.00,Weather View 32 v70,2013-02-12 17:09:00,
2013-02-12 10:14:00,27.7,-5.3,31.00,West,262,0.0,8.0,23,0.00,,,0.00,Weather View 32 v70,2013-02-12 17:14:00,
2013-02-12 10:19:00,29.5,-3.8,31.00,SSW,193,4.0,8.0,23,0.00,,,0.00,Weather View 32 v70,2013-02-12 17:19:00,
2013-02-12 10:24:00,28.6,-4.5,31.00,NW,305,0.0,8.0,23,0.00,,,0.00,Weather View 32 v70,2013-02-12 17:24:00,
2013-02-12 10:29:00,29.5,-3.8,31.00,North,3,5.0,8.0,23,0.00,,,0.00,Weather View 32 v70,2013-02-12 17:29:00,
2013-02-12 10:34:00,28.9,-4.2,31.00,NNE,17,3.0,8.0,23,0.00,,,0.00,Weather View 32 v70,2013-02-12 17:34:00,
2013-02-12 10:39:00,28.6,-4.5,31.00,East,92,5.0,8.0,23,0.00,,,0.00,Weather View 32 v70,2013-02-12 17:39:00,
2013-02-12 10:44:00,27.9,-5.2,31.00,SE,142,0.0,8.0,23,0.00,,,0.00,Weather View 32 v70,2013-02-12 17:44:00,
2013-02-12 10:49:00,29.1,-4.1,31.00,South,179,0.0,8.0,23,0.00,,,0.00,Weather View 32 v70,2013-02-12 17:49:00,
2013-02-12 10:54:00,30.9,-2.6,31.00,SE,143,0.0,8.0,23,0.00,,,0.00,Weather View 32 v70,2013-02-12 17:54:00,
2013-02-12 10:59:00,33.1,-0.7,31.00,SE,139,0.0,8.0,23,0.00,,,0.00,Weather View 32 v70,2013-02-12 17:59:00,
2013-02-12 11:04:00,36.0,0.8,31.00,East,92,4.0,8.0,22,0.00,,,0.00,Weather View 32 v70,2013-02-12 18:04:00,
2013-02-12 11:09:00,39.0,2.3,31.00,South,190,0.0,8.0,21,0.00,,,0.00,Weather View 32 v70,2013-02-12 18:09:00,
2013-02-12 11:14:00,39.4,2.6,31.00,West,269,0.0,8.0,21,0.00,,,0.00,Weather View 32 v70,2013-02-12 18:14:00,
2013-02-12 11:19:00,42.3,5.1,31.00,South,183,0.0,8.0,21,0.00,,,0.00,Weather View 32 v70,2013-02-12 18:19:00,
2013-02-12 11:24:00,39.9,3.1,31.00,ENE,68,3.0,6.0,21,0.00,,,0.00,Weather View 32 v70,2013-02-12 18:24:00,
2013-02-12 11:29:00,40.5,3.6,31.00,NE,54,2.0,6.0,21,0.00,,,0.00,Weather View 32 v70,2013-02-12 18:29:00,
2013-02-12 11:34:00,43.2,4.8,31.00,SE,133,6.0,6.0,20,0.00,,,0.00,Weather View 32 v70,2013-02-12 18:34:00,
2013-02-12 11:39:00,41.5,4.5,31.00,East,82,3.0,6.0,21,0.00,,,0.00,Weather View 32 v70,2013-02-12 18:39:00,
2013-02-12 11:44:00,40.1,3.3,31.00,East,101,0.0,6.0,21,0.00,,,0.00,Weather View 32 v70,2013-02-12 18:44:00,
2013-02-12 11:49:00,42.1,4.9,31.00,ESE,112,0.0,6.0,21,0.00,,,0.00,Weather View 32 v70,2013-02-12 18:49:00,
2013-02-12 11:54:00,40.6,3.7,31.00,SE,126,0.0,6.0,21,0.00,,,0.00,Weather View 32 v70,2013-02-12 18:54:00,
2013-02-12 11:59:00,41.7,4.6,31.00,SSE,149,0.0,6.0,21,0.00,,,0.00,Weather View 32 v70,2013-02-12 18:59:00,
2013-02-12 12:04:00,41.7,4.6,31.00,SSE,149,0.0,6.0,21,0.00,,,0.00,Weather View 32 v70,2013-02-12 19:04:00,
2013-02-12 12:09:00,39.7,3.0,31.00,SW,229,3.0,6.0,21,0.00,,,0.00,Weather View 32 v70,2013-02-12 19:09:00,
2013-02-12 12:14:00,39.4,2.6,31.00,East,87,0.0,6.0,21,0.00,,,0.00,Weather View 32 v70,2013-02-12 19:14:00,
2013-02-12 12:19:00,37.6,1.1,31.00,SE,131,0.0,6.0,21,0.00,,,0.00,Weather View 32 v70,2013-02-12 19:19:00,
2013-02-12 12:24:00,36.9,1.5,31.00,ENE,75,6.0,6.0,22,0.00,,,0.00,Weather View 32 v70,2013-02-12 19:24:00,
2013-02-12 12:29:00,36.3,1.1,31.00,South,181,0.0,6.0,22,0.00,,,0.00,Weather View 32 v70,2013-02-12 19:29:00,
2013-02-12 12:34:00,36.7,1.4,31.00,ESE,104,0.0,6.0,22,0.00,,,0.00,Weather View 32 v70,2013-02-12 19:34:00,
2013-02-12 12:39:00,36.1,0.9,31.00,East,91,0.0,6.0,22,0.00,,,0.00,Weather View 32 v70,2013-02-12 19:39:00,
2013-02-12 12:44:00,36.3,1.1,31.00,East,82,3.0,6.0,22,0.00,,,0.00,Weather View 32 v70,2013-02-12 19:44:00,
2013-02-12 12:49:00,36.1,0.9,31.00,SSE,150,5.0,6.0,22,0.00,,,0.00,Weather View 32 v70,2013-02-12 19:49:00,
2013-02-12 12:54:00,36.1,0.9,31.00,South,186,0.0,6.0,22,0.00,,,0.00,Weather View 32 v70,2013-02-12 19:54:00,
2013-02-12 12:59:00,36.7,1.4,31.00,South,185,0.0,6.0,22,0.00,,,0.00,Weather View 32 v70,2013-02-12 19:59:00,
2013-02-12 13:04:00,36.9,1.5,31.00,SSE,149,0.0,6.0,22,0.00,,,0.00,Weather View 32 v70,2013-02-12 20:04:00,
2013-02-12 13:09:00,34.9,-0.1,31.00,ENE,76,5.0,6.0,22,0.00,,,0.00,Weather View 32 v70,2013-02-12 20:09:00,
2013-02-12 13:14:00,34.9,-0.1,31.00,ENE,75,5.0,6.0,22,0.00,,,0.00,Weather View 32 v70,2013-02-12 20:14:00,
2013-02-12 13:19:00,35.2,0.2,31.00,North,353,3.0,6.0,22,0.00,,,0.00,Weather View 32 v70,2013-02-12 20:19:00,
2013-02-12 13:24:00,35.4,0.3,31.00,East,80,0.0,6.0,22,0.00,,,0.00,Weather View 32 v70,2013-02-12 20:24:00,
2013-02-12 13:29:00,35.6,0.5,31.00,East,83,0.0,6.0,22,0.00,,,0.00,Weather View 32 v70,2013-02-12 20:29:00,
2013-02-12 13:34:00,35.6,0.5,31.00,East,82,4.0,6.0,22,0.00,,,0.00,Weather View 32 v70,2013-02-12 20:34:00,
2013-02-12 13:39:00,35.8,0.6,31.00,East,101,0.0,6.0,22,0.00,,,0.00,Weather View 32 v70,2013-02-12 20:39:00,
2013-02-12 13:44:00,33.6,-0.3,31.00,NNE,13,0.0,6.0,23,0.00,,,0.00,Weather View 32 v70,2013-02-12 20:44:00,
2013-02-12 13:49:00,34.5,-0.4,31.00,WSW,252,0.0,6.0,22,0.00,,,0.00,Weather View 32 v70,2013-02-12 20:49:00,
2013-02-12 13:54:00,34.5,-0.4,31.00,ESE,117,0.0,6.0,22,0.00,,,0.00,Weather View 32 v70,2013-02-12 20:54:00,
2013-02-12 13:59:00,34.9,-0.1,31.00,SSW,206,3.0,6.0,22,0.00,,,0.00,Weather View 32 v70,2013-02-12 20:59:00,
2013-02-12 14:04:00,34.9,-0.1,31.00,North,6,0.0,8.0,22,0.00,,,0.00,Weather View 32 v70,2013-02-12 21:04:00,
2013-02-12 14:09:00,35.6,0.5,31.00,ESE,120,0.0,8.0,22,0.00,,,0.00,Weather View 32 v70,2013-02-12 21:09:00,
2013-02-12 14:14:00,35.4,0.3,31.00,NE,50,0.0,8.0,22,0.00,,,0.00,Weather View 32 v70,2013-02-12 21:14:00,
2013-02-12 14:19:00,34.9,-0.1,31.00,NW,313,3.0,8.0,22,0.00,,,0.00,Weather View 32 v70,2013-02-12 21:19:00,
2013-02-12 14:24:00,34.9,-0.1,31.00,NNW,330,0.0,8.0,22,0.00,,,0.00,Weather View 32 v70,2013-02-12 21:24:00,
2013-02-12 14:29:00,36.3,1.1,31.00,ENE,74,3.0,8.0,22,0.00,,,0.00,Weather View 32 v70,2013-02-12 21:29:00,
2013-02-12 14:34:00,37.6,1.1,31.00,ENE,57,0.0,8.0,21,0.00,,,0.00,Weather View 32 v70,2013-02-12 21:34:00,
2013-02-12 14:39:00,37.9,1.4,31.00,WNW,286,0.0,8.0,21,0.00,,,0.00,Weather View 32 v70,2013-02-12 21:39:00,
2013-02-12 14:44:00,38.5,1.9,31.00,West,275,0.0,8.0,21,0.00,,,0.00,Weather View 32 v70,2013-02-12 21:44:00,
2013-02-12 14:49:00,38.5,1.9,31.00,NW,320,0.0,8.0,21,0.00,,,0.00,Weather View 32 v70,2013-02-12 21:49:00,
2013-02-12 14:54:00,35.8,0.6,31.00,ENE,76,3.0,8.0,22,0.00,,,0.00,Weather View 32 v70,2013-02-12 21:54:00,
2013-02-12 14:59:00,33.8,-1.1,31.00,East,87,0.0,8.0,22,0.00,,,0.00,Weather View 32 v70,2013-02-12 21:59:00,
2013-02-12 15:04:00,34.9,-0.1,31.00,ENE,74,5.0,7.0,22,0.00,,,0.00,Weather View 32 v70,2013-02-12 22:04:00,
2013-02-12 15:09:00,34.3,-0.6,31.00,ENE,62,4.0,7.0,22,0.00,,,0.00,Weather View 32 v70,2013-02-12 22:09:00,
2013-02-12 15:14:00,34.9,-0.1,31.00,WNW,299,0.0,6.0,22,0.00,,,0.00,Weather View 32 v70,2013-02-12 22:14:00,
2013-02-12 15:19:00,35.4,0.3,31.00,SW,232,0.0,6.0,22,0.00,,,0.00,Weather View 32 v70,2013-02-12 22:19:00,
2013-02-12 15:24:00,34.0,-0.9,31.00,ENE,69,0.0,6.0,22,0.00,,,0.00,Weather View 32 v70,2013-02-12 22:24:00,
2013-02-12 15:29:00,32.5,-1.2,31.00,SSE,165,0.0,6.0,23,0.00,,,0.00,Weather View 32 v70,2013-02-12 22:29:00,
2013-02-12 15:34:00,30.6,-2.9,31.00,SE,125,0.0,6.0,23,0.00,,,0.00,Weather View 32 v70,2013-02-12 22:34:00,
2013-02-12 15:39:00,28.8,-4.4,31.00,NNE,28,6.0,6.0,23,0.00,,,0.00,Weather View 32 v70,2013-02-12 22:39:00,
2013-02-12 15:44:00,28.0,-5.0,31.00,West,266,4.0,6.0,23,0.00,,,0.00,Weather View 32 v70,2013-02-12 22:44:00,
2013-02-12 15:49:00,27.1,-5.8,31.00,North,4,3.0,6.0,23,0.00,,,0.00,Weather View 32 v70,2013-02-12 22:49:00,
2013-02-12 15:54:00,26.1,-5.8,31.00,East,81,4.0,6.0,24,0.00,,,0.00,Weather View 32 v70,2013-02-12 22:54:00,
2013-02-12 15:59:00,25.7,-4.5,31.00,SSW,196,3.0,8.0,26,0.00,,,0.00,Weather View 32 v70,2013-02-12 22:59:00,
2013-02-12 16:04:00,25.0,-5.1,31.00,ENE,68,6.0,11.0,26,0.00,,,0.00,Weather View 32 v70,2013-02-12 23:04:00,
2013-02-12 16:09:00,24.6,-4.6,31.00,West,281,0.0,11.0,27,0.00,,,0.00,Weather View 32 v70,2013-02-12 23:09:00,
2013-02-12 16:14:00,24.3,-4.9,31.00,SE,138,0.0,11.0,27,0.00,,,0.00,Weather View 32 v70,2013-02-12 23:14:00,
2013-02-12 16:19:00,24.1,-5.1,31.00,North,353,0.0,11.0,27,0.00,,,0.00,Weather View 32 v70,2013-02-12 23:19:00,
2013-02-12 16:24:00,23.9,-3.8,31.00,SW,227,3.0,11.0,29,0.00,,,0.00,Weather View 32 v70,2013-02-12 23:24:00,
2013-02-12 16:29:00,23.5,-4.1,31.00,East,81,3.0,11.0,29,0.00,,,0.00,Weather View 32 v70,2013-02-12 23:29:00,
2013-02-12 16:34:00,23.4,-2.2,31.00,SE,144,9.0,11.0,32,0.00,,,0.00,Weather View 32 v70,2013-02-12 23:34:00,
2013-02-12 16:39:00,23.2,-4.4,31.00,ENE,69,0.0,11.0,29,0.00,,,0.00,Weather View 32 v70,2013-02-12 23:39:00,
2013-02-12 16:44:00,22.8,-2.6,31.00,SSW,195,0.0,11.0,32,0.00,,,0.00,Weather View 32 v70,2013-02-12 23:44:00,
2013-02-12 16:49:00,22.6,-2.8,31.00,SW,222,0.0,11.0,32,0.00,,,0.00,Weather View 32 v70,2013-02-12 23:49:00,
2013-02-12 16:54:00,22.3,-2.5,31.00,SE,144,0.0,11.0,33,0.00,,,0.00,Weather View 32 v70,2013-02-12 23:54:00,
2013-02-12 16:59:00,21.9,-2.8,31.00,SE,138,0.0,11.0,33,0.00,,,0.00,Weather View 32 v70,2013-02-12 23:59:00,
2013-02-12 17:04:00,21.7,-2.9,31.00,SSE,166,0.0,10.0,33,0.00,,,0.00,Weather View 32 v70,2013-02-13 00:04:00,
2013-02-12 17:09:00,21.4,-2.6,31.00,SSE,151,0.0,10.0,34,0.00,,,0.00,Weather View 32 v70,2013-02-13 00:09:00,
2013-02-12 17:14:00,21.0,-2.4,31.00,SW,225,0.0,10.0,35,0.00,,,0.00,Weather View 32 v70,2013-02-13 00:14:00,
2013-02-12 17:19:00,20.7,-1.5,31.00,South,181,0.0,10.0,37,0.00,,,0.00,Weather View 32 v70,2013-02-13 00:19:00,
2013-02-12 17:24:00,20.7,-2.7,31.00,South,182,0.0,10.0,35,0.00,,,0.00,Weather View 32 v70,2013-02-13 00:24:00,
2013-02-12 17:29:00,20.3,-1.8,31.00,SE,137,0.0,10.0,37,0.00,,,0.00,Weather View 32 v70,2013-02-13 00:29:00,
2013-02-12 17:34:00,19.8,-2.3,31.00,SSE,149,0.0,10.0,37,0.00,,,0.00,Weather View 32 v70,2013-02-13 00:34:00,
2013-02-12 17:39:00,19.4,-1.5,31.00,South,175,0.0,5.0,39,0.00,,,0.00,Weather View 32 v70,2013-02-13 00:39:00,
2013-02-12 17:46:00,19.0,-1.9,31.00,WSW,240,0.0,5.0,39,0.00,,,0.00,Weather View 32 v70,2013-02-13 00:46:00,
2013-02-12 17:51:00,18.5,-0.3,31.00,WSW,240,0.0,5.0,43,0.00,,,0.00,Weather View 32 v70,2013-02-13 00:51:00,
2013-02-12 17:56:00,18.5,-0.8,31.00,WSW,253,0.0,5.0,42,0.00,,,0.00,Weather View 32 v70,2013-02-13 00:56:00,
2013-02-12 18:01:00,18.1,-0.6,31.00,WSW,253,0.0,5.0,43,0.00,,,0.00,Weather View 32 v70,2013-02-13 01:01:00,
2013-02-12 18:06:00,17.6,-0.6,31.00,WSW,251,0.0,5.0,44,0.00,,,0.00,Weather View 32 v70,2013-02-13 01:06:00,
2013-02-12 18:11:00,17.4,-1.3,31.00,WSW,245,0.0,5.0,43,0.00,,,0.00,Weather View 32 v70,2013-02-13 01:11:00,
2013-02-12 18:16:00,17.4,-1.8,31.00,SW,218,0.0,5.0,42,0.00,,,0.00,Weather View 32 v70,2013-02-13 01:16:00,
2013-02-12 18:21:00,17.2,-0.9,31.00,SW,218,0.0,5.0,44,0.00,,,0.00,Weather View 32 v70,2013-02-13 01:21:00,
2013-02-12 18:26:00,17.4,-1.3,31.00,WSW,240,0.0,6.0,43,0.00,,,0.00,Weather View 32 v70,2013-02-13 01:26:00,
2013-02-12 18:31:00,17.1,-0.6,31.00,SE,144,0.0,6.0,45,0.00,,,0.00,Weather View 32 v70,2013-02-13 01:31:00,
2013-02-12 18:36:00,16.9,-1.3,31.00,ESE,103,0.0,6.0,44,0.00,,,0.00,Weather View 32 v70,2013-02-13 01:36:00,
2013-02-12 18:41:00,16.7,-1.4,31.00,SSW,208,0.0,6.0,44,0.00,,,0.00,Weather View 32 v70,2013-02-13 01:41:00,
2013-02-12 18:46:00,16.7,-1.4,31.00,SSE,154,0.0,6.0,44,0.00,,,0.00,Weather View 32 v70,2013-02-13 01:46:00,
2013-02-12 18:51:00,17.4,-0.8,31.00,SW,226,0.0,8.0,44,0.00,,,0.00,Weather View 32 v70,2013-02-13 01:51:00,
2013-02-12 18:56:00,17.4,-0.8,31.00,SW,232,0.0,8.0,44,0.00,,,0.00,Weather View 32 v70,2013-02-13 01:56:00,
2013-02-12 19:01:00,17.8,-0.9,31.00,SSE,164,0.0,8.0,43,0.00,,,0.00,Weather View 32 v70,2013-02-13 02:01:00,
2013-02-12 19:06:00,17.8,-0.9,31.00,SSW,210,0.0,8.0,43,0.00,,,0.00,Weather View 32 v70,2013-02-13 02:06:00,
2013-02-12 19:11:00,17.8,-0.9,31.00,SSW,212,0.0,8.0,43,0.00,,,0.00,Weather View 32 v70,2013-02-13 02:11:00,
2013-02-12 19:16:00,17.6,-1.1,31.00,South,171,0.0,8.0,43,0.00,,,0.00,Weather View 32 v70,2013-02-13 02:16:00,
2013-02-12 19:21:00,17.2,-0.9,31.00,South,172,0.0,8.0,44,0.00,,,0.00,Weather View 32 v70,2013-02-13 02:21:00,
2013-02-12 19:26:00,16.9,-1.3,31.00,SSE,154,0.0,8.0,44,0.00,,,0.00,Weather View 32 v70,2013-02-13 02:26:00,
2013-02-12 19:31:00,17.1,-1.1,31.00,South,182,4.0,8.0,44,0.00,,,0.00,Weather View 32 v70,2013-02-13 02:31:00,
2013-02-12 19:36:00,17.2,-1.4,31.00,SE,142,0.0,8.0,43,0.00,,,0.00,Weather View 32 v70,2013-02-13 02:36:00,
2013-02-12 19:41:00,17.4,-0.8,31.00,ESE,117,0.0,8.0,44,0.00,,,0.00,Weather View 32 v70,2013-02-13 02:41:00,
2013-02-12 19:46:00,17.1,-1.1,31.00,WSW,247,0.0,8.0,44,0.00,,,0.00,Weather View 32 v70,2013-02-13 02:46:00,
2013-02-12 19:51:00,17.1,-1.1,31.00,SSW,202,0.0,6.0,44,0.00,,,0.00,Weather View 32 v70,2013-02-13 02:51:00,
2013-02-12 19:56:00,17.4,-1.3,31.00,SW,217,0.0,6.0,43,0.00,,,0.00,Weather View 32 v70,2013-02-13 02:56:00,
2013-02-12 20:01:00,17.8,-0.9,31.00,South,182,0.0,6.0,43,0.00,,,0.00,Weather View 32 v70,2013-02-13 03:01:00,
2013-02-12 20:06:00,17.6,-1.1,31.00,ESE,111,0.0,6.0,43,0.00,,,0.00,Weather View 32 v70,2013-02-13 03:06:00,
2013-02-12 20:11:00,17.6,-0.6,31.00,SW,224,0.0,6.0,44,0.00,,,0.00,Weather View 32 v70,2013-02-13 03:11:00,
2013-02-12 20:16:00,17.6,-0.6,31.00,SE,137,0.0,8.0,44,0.00,,,0.00,Weather View 32 v70,2013-02-13 03:16:00,
2013-02-12 20:21:00,17.4,-0.8,31.00,South,181,0.0,8.0,44,0.00,,,0.00,Weather View 32 v70,2013-02-13 03:21:00,
2013-02-12 20:26:00,17.2,-0.5,31.00,ESE,119,0.0,8.0,45,0.00,,,0.00,Weather View 32 v70,2013-02-13 03:26:00,
2013-02-12 20:31:00,17.6,-0.1,31.00,SSE,149,0.0,8.0,45,0.00,,,0.00,Weather View 32 v70,2013-02-13 03:31:00,
2013-02-12 20:36:00,18.1,-0.6,31.00,SW,231,0.0,8.0,43,0.00,,,0.00,Weather View 32 v70,2013-02-13 03:36:00,
2013-02-12 20:41:00,18.3,0.0,31.00,SSE,152,3.0,8.0,44,0.00,,,0.00,Weather View 32 v70,2013-02-13 03:41:00,
2013-02-12 20:46:00,17.8,-0.4,31.00,WNW,302,6.0,8.0,44,0.00,,,0.00,Weather View 32 v70,2013-02-13 03:46:00,
2013-02-12 20:51:00,17.8,-0.4,31.00,SSE,155,0.0,8.0,44,0.00,,,0.00,Weather View 32 v70,2013-02-13 03:51:00,
2013-02-12 20:56:00,18.1,-0.1,31.00,ENE,70,0.0,8.0,44,0.00,,,0.00,Weather View 32 v70,2013-02-13 03:56:00,
2013-02-12 21:01:00,18.1,-0.1,31.00,SSE,163,0.0,8.0,44,0.00,,,0.00,Weather View 32 v70,2013-02-13 04:01:00,
2013-02-12 21:06:00,18.1,-0.1,31.00,SE,142,5.0,8.0,44,0.00,,,0.00,Weather View 32 v70,2013-02-13 04:06:00,
2013-02-12 21:11:00,18.7,-0.1,31.00,WSW,237,5.0,8.0,43,0.00,,,0.00,Weather View 32 v70,2013-02-13 04:11:00,
2013-02-12 21:16:00,18.7,0.4,31.00,SW,228,0.0,8.0,44,0.00,,,0.00,Weather View 32 v70,2013-02-13 04:16:00,
2013-02-12 21:21:00,18.1,-0.1,31.00,South,177,2.0,8.0,44,0.00,,,0.00,Weather View 32 v70,2013-02-13 04:21:00,
2013-02-12 21:26:00,17.8,-0.4,31.00,NNW,340,0.0,8.0,44,0.00,,,0.00,Weather View 32 v70,2013-02-13 04:26:00,
2013-02-12 21:31:00,17.6,-0.1,31.00,ENE,68,0.0,8.0,45,0.00,,,0.00,Weather View 32 v70,2013-02-13 04:31:00,
2013-02-12 21:36:00,17.4,-0.3,31.00,SE,144,0.0,8.0,45,0.00,,,0.00,Weather View 32 v70,2013-02-13 04:36:00,
2013-02-12 21:41:00,17.6,-0.1,0.00,South,179,0.0,8.0,45,0.00,,,0.00,Weather View 32 v70,2013-02-13 04:41:00,
2013-02-12 21:46:00,17.4,0.2,31.00,ENE,70,0.0,8.0,46,0.00,,,0.00,Weather View 32 v70,2013-02-13 04:46:00,
2013-02-12 21:51:00,16.9,0.1,31.00,ESE,105,0.0,8.0,47,0.00,,,0.00,Weather View 32 v70,2013-02-13 04:51:00,
2013-02-12 21:56:00,16.7,0.0,31.00,SSE,155,0.0,8.0,47,0.00,,,0.00,Weather View 32 v70,2013-02-13 04:56:00,
2013-02-12 22:00:00,16.9,-0.3,31.00,South,183,0.0,8.0,46,0.00,,,0.00,Weather View 32 v70,2013-02-13 05:00:00,
2013-02-12 22:05:00,17.4,0.6,31.00,SE,124,4.0,8.0,47,0.00,,,0.00,Weather View 32 v70,2013-02-13 05:05:00,
2013-02-12 22:10:00,17.4,1.1,31.00,WSW,253,0.0,8.0,48,0.00,,,0.00,Weather View 32 v70,2013-02-13 05:10:00,
2013-02-12 22:15:00,17.2,0.0,31.00,SW,214,0.0,8.0,46,0.00,,,0.00,Weather View 32 v70,2013-02-13 05:15:00,
2013-02-12 22:20:00,18.0,0.2,31.00,South,182,4.0,8.0,45,0.00,,,0.00,Weather View 32 v70,2013-02-13 05:20:00,
2013-02-12 22:25:00,17.8,0.0,31.00,NW,321,0.0,8.0,45,0.00,,,0.00,Weather View 32 v70,2013-02-13 05:25:00,
2013-02-12 22:30:00,17.8,0.0,31.00,SE,128,0.0,8.0,45,0.00,,,0.00,Weather View 32 v70,2013-02-13 05:30:00,
2013-02-12 22:35:00,17.8,0.0,31.00,East,87,0.0,9.0,45,0.00,,,0.00,Weather View 32 v70,2013-02-13 05:35:00,
2013-02-12 22:40:00,18.1,0.4,31.00,SSE,163,6.0,9.0,45,0.00,,,0.00,Weather View 32 v70,2013-02-13 05:40:00,
2013-02-12 22:45:00,18.0,0.2,31.00,SE,136,6.0,9.0,45,0.00,,,0.00,Weather View 32 v70,2013-02-13 05:45:00,
2013-02-12 22:50:00,17.8,0.0,31.00,North,6,0.0,9.0,45,0.00,,,0.00,Weather View 32 v70,2013-02-13 05:50:00,
2013-02-12 22:55:00,17.6,0.3,31.00,South,180,0.0,9.0,46,0.00,,,0.00,Weather View 32 v70,2013-02-13 05:55:00,
2013-02-12 23:00:00,17.8,0.0,31.00,SSE,159,0.0,9.0,45,0.00,,,0.00,Weather View 32 v70,2013-02-13 06:00:00,
2013-02-12 23:05:00,18.0,0.2,31.00,SSE,149,0.0,9.0,45,0.00,,,0.00,Weather View 32 v70,2013-02-13 06:05:00,
2013-02-12 23:10:00,18.0,0.2,31.00,SSW,193,3.0,9.0,45,0.00,,,0.00,Weather View 32 v70,2013-02-13 06:10:00,
2013-02-12 23:15:00,18.3,0.5,31.00,SE,124,0.0,9.0,45,0.00,,,0.00,Weather View 32 v70,2013-02-13 06:15:00,
2013-02-12 23:20:00,18.5,0.7,31.00,SE,142,0.0,11.0,45,0.00,,,0.00,Weather View 32 v70,2013-02-13 06:20:00,
2013-02-12 23:25:00,18.1,0.4,31.00,South,191,0.0,11.0,45,0.00,,,0.00,Weather View 32 v70,2013-02-13 06:25:00,
2013-02-12 23:30:00,18.0,0.2,31.00,SE,143,6.0,11.0,45,0.00,,,0.00,Weather View 32 v70,2013-02-13 06:30:00,
2013-02-12 23:35:00,18.5,0.7,31.00,South,181,4.0,11.0,45,0.00,,,0.00,Weather View 32 v70,2013-02-13 06:35:00,
2013-02-12 23:40:00,18.1,0.4,31.00,SW,234,4.0,11.0,45,0.00,,,0.00,Weather View 32 v70,2013-02-13 06:40:00,
2013-02-12 23:45:00,18.3,0.5,31.00,SSE,150,0.0,11.0,45,0.00,,,0.00,Weather View 32 v70,2013-02-13 06:45:00,
2013-02-12 23:50:00,18.5,0.7,31.00,SW,220,4.0,11.0,45,0.00,,,0.00,Weather View 32 v70,2013-02-13 06:50:00,
2013-02-12 23:55:00,19.0,1.2,31.00,SW,234,5.0,13.0,45,0.00,,,0.00,Weather View 32 v70,2013-02-13 06:55:00,